Time;durP1;ratioP1;P1;durP2;ratioP2;P2;SDS_P1;SDS_P2;PMS_P1;PMS_P2;Temp;Humidity;BMP_temperature;BMP_pressure;BME280_temperature;BME280_humidity;BME280_pressure;Samples;Min_cycle;Max_cycle;Signal;HPM_P1;HPM_P2
2023/04/23 00:01:06;;;;;;;0.77;0.77;;;;;;;10.77;69.18;100815.25;5072075;28;20558;-83
2023/04/23 00:03:33;;;;;;;0.17;0.17;;;;;;;10.74;69.19;100812.63;5068151;28;20024;-81
2023/04/23 00:06:03;;;;;;;0.28;0.28;;;;;;;10.71;69.15;100812.72;5082510;28;20032;-83
2023/04/23 00:08:31;;;;;;;0.10;0.10;;;;;;;10.68;69.11;100803.91;5079852;28;20052;-82
2023/04/23 00:10:57;;;;;;;0.25;0.25;;;;;;;10.65;69.27;100809.31;5069342;28;20053;-82
2023/04/23 00:13:24;;;;;;;0.45;0.45;;;;;;;10.65;69.08;100806.66;5079530;28;20040;-81
2023/04/23 00:15:50;;;;;;;0.20;0.20;;;;;;;10.63;68.94;100808.44;5090324;28;20031;-81
2023/04/23 00:18:16;;;;;;;0.13;0.13;;;;;;;10.62;69.29;100803.19;5071861;28;20032;-81
2023/04/23 00:20:43;;;;;;;0.50;0.50;;;;;;;10.61;69.21;100810.25;5082414;28;20575;-82
2023/04/23 00:23:09;;;;;;;0.10;0.10;;;;;;;10.60;69.31;100803.19;5087385;28;20031;-82
2023/04/23 00:25:35;;;;;;;1.05;1.05;;;;;;;10.61;69.12;100806.75;5083703;28;20047;-82
2023/04/23 00:28:01;;;;;;;0.45;0.45;;;;;;;10.61;69.35;100797.00;5072444;28;20012;-82
2023/04/23 00:30:28;;;;;;;0.25;0.25;;;;;;;10.61;69.78;100797.00;5081124;28;20097;-82
2023/04/23 00:32:54;;;;;;;0.20;0.20;;;;;;;10.63;69.67;100800.50;5080602;28;20100;-80
2023/04/23 00:35:20;;;;;;;0.17;0.17;;;;;;;10.66;69.63;100794.25;5087282;28;20021;-80
2023/04/23 00:37:46;;;;;;;0.10;0.10;;;;;;;10.66;69.30;100789.81;5083559;28;20049;-80
2023/04/23 00:40:13;;;;;;;0.17;0.17;;;;;;;10.68;69.69;100780.06;5068475;28;20063;-80
2023/04/23 00:42:39;;;;;;;3.42;0.75;;;;;;;10.73;69.57;100779.09;5072491;28;20033;-82
2023/04/23 00:45:07;;;;;;;0.10;0.10;;;;;;;10.76;69.65;100776.38;5066772;28;20115;-80
2023/04/23 00:47:34;;;;;;;0.30;0.30;;;;;;;10.81;69.40;100779.81;5076672;28;20073;-79
2023/04/23 00:50:00;;;;;;;1.00;0.90;;;;;;;10.84;69.52;100771.78;5082617;28;20108;-80
2023/04/23 00:52:28;;;;;;;0.40;0.40;;;;;;;10.85;69.62;100768.22;5088734;28;20025;-80
2023/04/23 00:54:55;;;;;;;0.25;0.25;;;;;;;10.81;69.57;100764.75;5079691;28;20025;-80
2023/04/23 00:57:22;;;;;;;0.30;0.30;;;;;;;10.78;69.43;100769.25;5090290;28;20021;-79
2023/04/23 00:59:48;;;;;;;0.80;0.80;;;;;;;10.71;69.80;100765.03;5086152;28;20050;-82
2023/04/23 01:02:16;;;;;;;0.10;0.10;;;;;;;10.66;69.30;100751.88;5083324;28;20028;-79
2023/04/23 01:04:43;;;;;;;0.10;0.10;;;;;;;10.64;69.85;100759.84;5082540;28;20376;-82
2023/04/23 01:07:11;;;;;;;0.10;0.10;;;;;;;10.65;69.56;100761.59;5082644;28;20020;-79
2023/04/23 01:09:38;;;;;;;0.10;0.10;;;;;;;10.66;69.42;100754.50;5087910;28;20021;-80
2023/04/23 01:12:05;;;;;;;0.88;0.50;;;;;;;10.71;69.66;100751.78;5080940;28;20107;-80
2023/04/23 01:14:32;;;;;;;9.07;1.20;;;;;;;10.73;70.00;100748.19;5074082;28;20028;-80
2023/04/23 01:16:58;;;;;;;0.10;0.10;;;;;;;10.78;69.72;100753.34;5078610;28;20087;-80
2023/04/23 01:19:25;;;;;;;1.48;1.42;;;;;;;10.81;69.50;100750.66;5088122;28;20055;-79
2023/04/23 01:21:52;;;;;;;1.15;1.15;;;;;;;10.84;69.84;100754.09;5080275;28;20041;-82
2023/04/23 01:24:18;;;;;;;1.38;1.27;;;;;;;10.88;70.02;100741.66;5080493;28;20056;-80
2023/04/23 01:26:44;;;;;;;0.30;0.30;;;;;;;10.89;70.36;100746.06;5079157;28;20028;-79
2023/04/23 01:29:10;;;;;;;2.45;1.45;;;;;;;10.92;70.07;100742.47;5077383;28;20037;-79
2023/04/23 01:31:37;;;;;;;1.17;1.17;;;;;;;10.92;70.29;100740.69;5089836;28;20036;-79
2023/04/23 01:34:04;;;;;;;0.20;0.20;;;;;;;10.94;70.29;100735.31;5084055;28;20017;-79
2023/04/23 01:36:30;;;;;;;0.20;0.20;;;;;;;10.97;70.49;100735.28;5085981;28;20067;-79
2023/04/23 01:38:57;;;;;;;0.20;0.20;;;;;;;10.98;70.58;100729.94;5088117;28;20086;-80
2023/04/23 01:41:23;;;;;;;0.25;0.25;;;;;;;11.02;70.29;100735.19;5085034;28;20028;-80
2023/04/23 01:43:50;;;;;;;0.30;0.30;;;;;;;11.04;70.51;100733.34;5079256;28;20060;-80
2023/04/23 01:46:16;;;;;;;3.05;1.77;;;;;;;11.07;70.32;100736.78;5090339;28;20028;-80
2023/04/23 01:48:42;;;;;;;0.10;0.10;;;;;;;11.09;70.13;100719.06;5091327;28;20032;-80
2023/04/23 01:51:08;;;;;;;0.82;0.63;;;;;;;11.11;70.07;100727.00;5082677;28;20033;-80
2023/04/23 01:53:34;;;;;;;0.52;0.52;;;;;;;11.08;70.74;100729.69;5087187;28;20104;-80
2023/04/23 01:56:01;;;;;;;0.50;0.50;;;;;;;11.11;70.45;100727.00;5084194;28;20042;-80
2023/04/23 01:58:27;;;;;;;0.00;0.00;;;;;;;11.13;70.40;100728.69;5087172;28;20056;-80
2023/04/23 02:00:53;;;;;;;0.10;0.10;;;;;;;11.17;70.35;100718.88;5093787;28;20032;-80
2023/04/23 02:03:19;;;;;;;0.10;0.10;;;;;;;11.23;70.27;100716.09;5081927;28;20073;-80
2023/04/23 02:05:46;;;;;;;0.98;0.98;;;;;;;11.26;70.58;100720.44;5087096;28;20035;-80
2023/04/23 02:08:12;;;;;;;0.10;0.10;;;;;;;11.30;70.40;100716.78;5080323;28;20029;-80
2023/04/23 02:10:39;;;;;;;0.10;0.10;;;;;;;11.35;70.50;100712.22;5093574;28;20039;-80
2023/04/23 02:13:05;;;;;;;0.68;0.68;;;;;;;11.38;69.98;100709.53;5084500;28;20028;-80
2023/04/23 02:15:31;;;;;;;1.55;0.52;;;;;;;11.40;70.66;100714.78;5089162;28;20122;-80
2023/04/23 02:17:57;;;;;;;0.40;0.40;;;;;;;11.39;70.39;100705.97;5083109;28;20051;-80
2023/04/23 02:20:24;;;;;;;1.15;0.65;;;;;;;11.43;70.73;100707.63;5080756;28;20017;-79
2023/04/23 02:22:50;;;;;;;0.10;0.10;;;;;;;11.46;70.53;100711.97;5067957;28;20491;-79
2023/04/23 02:25:17;;;;;;;0.40;0.40;;;;;;;11.44;70.52;100697.88;5083308;28;20008;-81
2023/04/23 02:27:44;;;;;;;0.10;0.10;;;;;;;11.48;70.33;100705.72;5091397;28;20025;-81
2023/04/23 02:30:11;;;;;;;0.50;0.50;;;;;;;11.50;70.25;100708.31;5085734;28;20020;-81
2023/04/23 02:32:38;;;;;;;0.32;0.32;;;;;;;11.52;70.29;100703.84;5084763;28;20028;-80
2023/04/23 02:35:05;;;;;;;1.45;1.40;;;;;;;11.49;70.53;100699.50;5081975;28;20025;-79
2023/04/23 02:37:32;;;;;;;0.10;0.10;;;;;;;11.48;70.54;100697.75;5081251;28;20021;-78
2023/04/23 02:39:59;;;;;;;0.65;0.65;;;;;;;11.50;70.25;100692.41;5080888;28;20029;-78
2023/04/23 02:42:25;;;;;;;0.10;0.10;;;;;;;11.50;70.26;100697.69;5081480;28;20031;-79
2023/04/23 02:44:51;;;;;;;0.15;0.15;;;;;;;11.54;70.14;100704.69;5077632;28;20037;-79
2023/04/23 02:47:17;;;;;;;0.52;0.52;;;;;;;11.56;70.06;100708.16;5071279;28;20029;-80
2023/04/23 02:49:43;;;;;;;0.57;0.57;;;;;;;11.56;70.58;100702.84;5080531;28;20028;-79
2023/04/23 02:52:10;;;;;;;0.20;0.20;;;;;;;11.57;70.62;100704.59;5080465;28;20055;-79
2023/04/23 02:54:36;;;;;;;0.38;0.38;;;;;;;11.59;70.58;100707.19;5084661;28;20024;-80
2023/04/23 02:57:03;;;;;;;0.50;0.50;;;;;;;11.59;70.17;100708.09;5084462;28;20029;-80
2023/04/23 02:59:29;;;;;;;0.30;0.30;;;;;;;11.59;70.27;100713.41;5085101;28;20028;-80
2023/04/23 03:01:55;;;;;;;0.10;0.10;;;;;;;11.56;69.89;100705.50;5087324;28;20037;-80
2023/04/23 03:04:22;;;;;;;0.20;0.20;;;;;;;11.53;70.24;100708.25;5086736;28;20028;-80
2023/04/23 03:06:48;;;;;;;4.47;0.60;;;;;;;11.50;69.65;100705.66;5085402;28;20039;-80
2023/04/23 03:09:14;;;;;;;0.10;0.10;;;;;;;11.49;69.88;100704.81;5084251;28;20088;-79
2023/04/23 03:11:41;;;;;;;0.10;0.10;;;;;;;11.52;70.11;100701.19;5086362;28;20103;-78
2023/04/23 03:14:07;;;;;;;0.10;0.10;;;;;;;11.51;69.65;100704.75;5080282;28;20024;-80
2023/04/23 03:16:33;;;;;;;0.10;0.10;;;;;;;11.51;70.16;100704.75;5080384;28;20114;-80
2023/04/23 03:19:00;;;;;;;0.80;0.80;;;;;;;11.49;70.07;100702.16;5083407;28;20043;-80
2023/04/23 03:21:26;;;;;;;0.20;0.20;;;;;;;11.46;70.22;100699.59;5083496;28;20028;-80
2023/04/23 03:23:52;;;;;;;0.93;0.75;;;;;;;11.45;70.10;100694.31;5080422;28;20025;-80
2023/04/23 03:26:18;;;;;;;0.10;0.10;;;;;;;11.43;69.90;100690.84;5080339;28;20036;-80
2023/04/23 03:28:44;;;;;;;0.65;0.65;;;;;;;11.42;70.20;100700.56;5078031;28;20579;-80
2023/04/23 03:31:10;;;;;;;0.10;0.10;;;;;;;11.40;69.51;100690.91;5079062;28;20056;-80
2023/04/23 03:33:36;;;;;;;0.20;0.20;;;;;;;11.33;70.29;100691.06;5077386;28;20031;-80
2023/04/23 03:36:03;;;;;;;1.45;1.42;;;;;;;11.32;70.05;100689.31;5078929;28;20036;-79
2023/04/23 03:38:29;;;;;;;0.10;0.10;;;;;;;11.32;69.81;100684.00;5079468;28;20036;-81
2023/04/23 03:40:55;;;;;;;0.10;0.10;;;;;;;11.33;69.63;100680.44;5080226;28;20036;-81
2023/04/23 03:43:21;;;;;;;0.10;0.10;;;;;;;11.35;69.74;100682.19;5078655;28;20028;-80
2023/04/23 03:45:47;;;;;;;0.10;0.10;;;;;;;11.36;70.35;100670.69;5079744;28;20040;-80
2023/04/23 03:48:13;;;;;;;0.10;0.10;;;;;;;11.43;69.84;100680.22;5073434;28;20028;-80
2023/04/23 03:50:39;;;;;;;0.10;0.10;;;;;;;11.46;69.99;100680.13;5078697;28;20036;-80
2023/04/23 03:53:07;;;;;;;0.10;0.10;;;;;;;11.45;69.91;100683.69;5081890;28;20025;-80
2023/04/23 03:55:33;;;;;;;0.20;0.20;;;;;;;11.44;70.16;100687.25;5083371;28;20040;-80
2023/04/23 03:58:02;;;;;;;0.10;0.10;;;;;;;11.44;70.12;100684.59;5080631;28;20039;-80
2023/04/23 04:00:28;;;;;;;0.68;0.68;;;;;;;11.44;69.89;100679.28;5083055;28;20020;-80
2023/04/23 04:02:54;;;;;;;0.20;0.20;;;;;;;11.43;69.68;100683.75;5082170;28;20509;-80
2023/04/23 04:05:21;;;;;;;0.47;0.47;;;;;;;11.41;69.65;100677.59;5079226;28;20052;-81
2023/04/23 04:07:48;;;;;;;0.93;0.85;;;;;;;11.30;70.71;100683.19;5081720;28;20536;-80
2023/04/23 04:10:14;;;;;;;0.95;0.57;;;;;;;11.31;70.16;100682.28;5083431;28;20040;-80
2023/04/23 04:12:41;;;;;;;0.10;0.10;;;;;;;11.33;70.21;100688.41;5082566;28;20025;-80
2023/04/23 04:15:07;;;;;;;0.20;0.20;;;;;;;11.35;70.63;100692.81;5083576;28;20032;-80
2023/04/23 04:17:33;;;;;;;0.10;0.10;;;;;;;11.34;70.63;100686.66;5074684;28;20028;-80
2023/04/23 04:20:00;;;;;;;1.38;1.23;;;;;;;11.34;70.54;100689.31;5077174;28;20486;-81
2023/04/23 04:22:26;;;;;;;0.20;0.20;;;;;;;11.31;70.25;100692.00;5081676;28;20020;-81
2023/04/23 04:24:52;;;;;;;0.22;0.22;;;;;;;11.29;70.11;100692.06;5079844;28;20489;-81
2023/04/23 04:27:20;;;;;;;0.50;0.50;;;;;;;11.28;69.94;100687.66;5079399;28;20050;-81
2023/04/23 04:29:47;;;;;;;0.10;0.10;;;;;;;11.24;69.96;100683.34;5080542;28;20043;-80
2023/04/23 04:32:13;;;;;;;0.88;0.88;;;;;;;11.20;70.22;100686.13;5079946;28;20024;-79
2023/04/23 04:34:39;;;;;;;1.85;1.58;;;;;;;11.16;70.37;100685.31;5081882;28;20032;-80
2023/04/23 04:37:06;;;;;;;0.10;0.10;;;;;;;11.12;70.49;100681.88;5082882;28;20073;-80
2023/04/23 04:39:32;;;;;;;0.90;0.90;;;;;;;11.08;70.19;100690.81;5078173;28;20037;-81
2023/04/23 04:41:58;;;;;;;1.63;1.52;;;;;;;11.04;69.90;100683.84;5082819;28;20035;-81
2023/04/23 04:44:24;;;;;;;0.85;0.85;;;;;;;11.00;70.08;100685.72;5079748;28;20036;-81
2023/04/23 04:46:51;;;;;;;0.20;0.20;;;;;;;10.98;69.99;100690.16;5076541;28;20048;-82
2023/04/23 04:49:18;;;;;;;0.10;0.10;;;;;;;10.96;70.07;100683.16;5086998;28;20047;-81
2023/04/23 04:51:44;;;;;;;0.10;0.10;;;;;;;10.94;70.02;100680.56;5085450;28;20506;-81
2023/04/23 04:54:11;;;;;;;0.10;0.10;;;;;;;11.00;70.16;100683.06;5098133;28;20043;-81
2023/04/23 04:56:37;;;;;;;0.20;0.20;;;;;;;11.00;70.31;100687.47;5095971;28;20031;-79
2023/04/23 04:59:03;;;;;;;0.10;0.10;;;;;;;10.99;70.05;100686.63;5080457;28;20032;-81
2023/04/23 05:01:29;;;;;;;0.55;0.55;;;;;;;10.99;70.06;100685.72;5077640;28;20024;-81
2023/04/23 05:03:56;;;;;;;0.10;0.10;;;;;;;11.00;70.46;100687.47;5082714;28;20520;-82
2023/04/23 05:06:22;;;;;;;1.05;1.05;;;;;;;10.99;70.42;100691.03;5081370;28;20050;-82
2023/04/23 05:08:49;;;;;;;0.10;0.10;;;;;;;10.98;70.12;100690.16;5094530;28;20024;-81
2023/04/23 05:11:17;;;;;;;0.30;0.30;;;;;;;11.00;70.41;100688.34;5084179;28;20039;-81
2023/04/23 05:13:44;;;;;;;0.98;0.82;;;;;;;10.99;70.68;100691.91;5096794;28;20020;-80
2023/04/23 05:16:10;;;;;;;0.15;0.15;;;;;;;10.97;70.70;100696.38;5088529;28;20087;-81
2023/04/23 05:18:37;;;;;;;0.10;0.10;;;;;;;10.97;70.43;100699.03;5081580;28;20024;-81
2023/04/23 05:21:05;;;;;;;0.38;0.38;;;;;;;11.01;70.35;100691.88;5086217;28;20104;-81
2023/04/23 05:23:31;;;;;;;0.10;0.10;;;;;;;11.08;70.61;100700.53;5081903;28;20039;-81
2023/04/23 05:25:57;;;;;;;0.22;0.22;;;;;;;11.09;71.16;100692.56;5084752;28;20032;-81
2023/04/23 05:28:24;;;;;;;0.20;0.20;;;;;;;11.12;70.79;100681.00;5084422;28;20107;-81
2023/04/23 05:30:51;;;;;;;1.35;1.27;;;;;;;11.18;71.33;100686.16;5087420;28;20036;-81
2023/04/23 05:33:17;;;;;;;0.30;0.30;;;;;;;11.24;70.80;100675.41;5086803;28;20422;-81
2023/04/23 05:35:43;;;;;;;1.08;1.08;;;;;;;11.30;70.80;100679.66;5088204;28;20028;-81
2023/04/23 05:38:10;;;;;;;1.75;0.75;;;;;;;11.31;70.77;100682.28;5088225;28;20024;-81
2023/04/23 05:40:36;;;;;;;0.32;0.32;;;;;;;11.33;71.25;100679.59;5088897;28;20032;-82
2023/04/23 05:43:02;;;;;;;2.00;1.77;;;;;;;11.33;70.81;100675.16;5090750;28;20039;-81
2023/04/23 05:45:28;;;;;;;0.20;0.20;;;;;;;11.37;70.77;100686.56;5092607;28;20032;-82
2023/04/23 05:47:54;;;;;;;0.30;0.30;;;;;;;11.39;70.85;100681.19;5096982;28;20039;-82
2023/04/23 05:50:21;;;;;;;0.17;0.17;;;;;;;11.43;71.04;100685.53;5084435;28;20074;-81
2023/04/23 05:52:47;;;;;;;0.10;0.10;;;;;;;11.44;70.97;100685.50;5087545;28;20063;-81
2023/04/23 05:55:14;;;;;;;0.68;0.68;;;;;;;11.48;71.41;100683.63;5081203;28;20036;-82
2023/04/23 05:57:41;;;;;;;0.10;0.10;;;;;;;11.49;71.19;100680.06;5088479;28;20524;-82
2023/04/23 06:00:09;;;;;;;0.10;0.10;;;;;;;11.53;70.98;100676.41;5086128;28;20119;-82
2023/04/23 06:02:35;;;;;;;1.05;0.95;;;;;;;11.56;70.84;100678.97;5088490;28;20021;-81
2023/04/23 06:05:01;;;;;;;0.10;0.10;;;;;;;11.59;71.15;100678.91;5087553;28;20102;-81
2023/04/23 06:07:27;;;;;;;0.45;0.43;;;;;;;11.59;71.49;100673.59;5084850;28;20021;-81
2023/04/23 06:09:53;;;;;;;0.20;0.20;;;;;;;11.64;71.78;100671.69;5090209;28;20028;-81
2023/04/23 06:12:19;;;;;;;0.20;0.20;;;;;;;11.73;71.49;100677.66;5085787;28;20062;-81
2023/04/23 06:14:46;;;;;;;0.20;0.20;;;;;;;11.76;71.43;100662.53;5090779;28;20079;-80
2023/04/23 06:17:12;;;;;;;0.10;0.10;;;;;;;11.81;71.41;100665.03;5085344;28;20035;-81
2023/04/23 06:19:38;;;;;;;0.30;0.30;;;;;;;11.88;71.57;100669.25;5094190;28;20519;-81
2023/04/23 06:22:04;;;;;;;0.20;0.20;;;;;;;11.92;72.55;100665.59;5086792;28;20060;-81
2023/04/23 06:24:30;;;;;;;0.10;0.10;;;;;;;12.00;72.02;100664.53;5085910;28;20036;-81
2023/04/23 06:26:56;;;;;;;0.55;0.55;;;;;;;12.09;71.29;100664.28;5082098;28;20028;-82
2023/04/23 06:29:23;;;;;;;0.20;0.20;;;;;;;12.12;71.71;100662.44;5077666;28;20055;-81
2023/04/23 06:31:49;;;;;;;0.82;0.82;;;;;;;12.18;71.91;100657.84;5085890;28;20024;-81
2023/04/23 06:34:15;;;;;;;1.58;0.80;;;;;;;12.23;71.69;100662.09;5078594;28;20238;-81
2023/04/23 06:36:42;;;;;;;2.42;0.98;;;;;;;12.26;71.94;100655.81;5080580;28;20020;-81
2023/04/23 06:39:09;;;;;;;0.38;0.38;;;;;;;12.35;71.74;100644.91;5087749;28;20048;-81
2023/04/23 06:41:35;;;;;;;0.10;0.10;;;;;;;12.41;71.58;100647.38;5082671;28;20553;-80
2023/04/23 06:44:01;;;;;;;0.80;0.80;;;;;;;12.48;71.53;100649.84;5083952;28;20108;-81
2023/04/23 06:46:27;;;;;;;0.60;0.60;;;;;;;12.50;71.84;100648.88;5087614;28;20067;-81
2023/04/23 06:48:54;;;;;;;0.30;0.30;;;;;;;12.55;71.78;100644.28;5077105;28;20056;-81
2023/04/23 06:51:20;;;;;;;0.20;0.20;;;;;;;12.64;71.43;100644.94;5080559;28;20095;-80
2023/04/23 06:53:46;;;;;;;0.10;0.10;;;;;;;12.73;71.46;100644.63;5082102;28;20056;-81
2023/04/23 06:56:13;;;;;;;0.15;0.15;;;;;;;12.78;71.58;100642.69;5085939;28;20036;-81
2023/04/23 06:58:40;;;;;;;0.20;0.20;;;;;;;12.86;71.80;100645.97;5081726;28;20082;-82
2023/04/23 07:01:06;;;;;;;0.20;0.20;;;;;;;12.95;71.22;100647.47;5085252;28;20366;-81
2023/04/23 07:03:32;;;;;;;0.20;0.20;;;;;;;13.05;71.33;100645.38;5087130;28;20025;-81
2023/04/23 07:05:59;;;;;;;0.82;0.82;;;;;;;13.06;71.39;100647.09;5091392;28;20094;-81
2023/04/23 07:08:25;;;;;;;0.10;0.10;;;;;;;13.16;70.97;100639.66;5085687;28;20036;-80
2023/04/23 07:10:52;;;;;;;1.00;0.88;;;;;;;13.19;70.64;100635.13;5093197;28;20041;-82
2023/04/23 07:13:18;;;;;;;0.65;0.63;;;;;;;13.33;70.50;100633.78;5082404;28;20029;-81
2023/04/23 07:15:45;;;;;;;0.30;0.30;;;;;;;13.42;70.65;100633.47;5085549;28;20029;-82
2023/04/23 07:18:11;;;;;;;0.10;0.10;;;;;;;13.47;70.22;100626.22;5083691;28;20028;-81
2023/04/23 07:20:37;;;;;;;0.40;0.40;;;;;;;13.57;70.11;100622.28;5087926;28;20035;-80
2023/04/23 07:23:03;;;;;;;0.20;0.20;;;;;;;13.63;70.39;100628.31;5080028;28;20029;-81
2023/04/23 07:25:30;;;;;;;0.20;0.20;;;;;;;13.70;70.27;100622.72;5086782;28;20373;-81
2023/04/23 07:27:57;;;;;;;0.20;0.20;;;;;;;13.76;69.81;100626.94;5078337;28;20025;-79
2023/04/23 07:30:24;;;;;;;0.90;0.90;;;;;;;13.83;69.93;100620.47;5083970;28;20024;-81
2023/04/23 07:32:50;;;;;;;0.90;0.90;;;;;;;13.88;69.44;100623.84;5081581;28;20031;-78
2023/04/23 07:35:16;;;;;;;0.20;0.20;;;;;;;13.99;69.73;100622.56;5079286;28;20123;-78
2023/04/23 07:37:42;;;;;;;0.10;0.10;;;;;;;14.07;69.63;100625.81;5091928;28;20034;-79
2023/04/23 07:40:09;;;;;;;0.10;0.10;;;;;;;14.10;69.27;100620.34;5092480;28;20034;-80
2023/04/23 07:42:35;;;;;;;0.30;0.30;;;;;;;14.22;69.13;100624.34;5085300;28;20058;-79
2023/04/23 07:45:01;;;;;;;0.30;0.30;;;;;;;14.28;68.31;100616.13;5083114;28;20445;-80
2023/04/23 07:47:27;;;;;;;0.63;0.63;;;;;;;14.40;68.89;100614.75;5088356;28;20035;-79
2023/04/23 07:49:53;;;;;;;0.10;0.10;;;;;;;14.51;68.98;100612.53;5088752;28;20085;-79
2023/04/23 07:52:19;;;;;;;0.32;0.32;;;;;;;14.58;68.36;100599.84;5081409;28;20032;-80
2023/04/23 07:54:45;;;;;;;0.20;0.20;;;;;;;14.69;67.94;100618.06;5080281;28;20040;-80
2023/04/23 07:57:11;;;;;;;0.30;0.30;;;;;;;14.84;68.04;100612.13;5074996;28;20085;-81
2023/04/23 07:59:38;;;;;;;0.77;0.68;;;;;;;14.86;66.76;100604.91;5078643;28;20111;-80
2023/04/23 08:02:05;;;;;;;0.10;0.10;;;;;;;14.96;67.42;100610.72;5084168;28;20021;-81
2023/04/23 08:04:31;;;;;;;0.13;0.13;;;;;;;15.00;66.70;100601.69;5080296;28;20041;-80
2023/04/23 08:06:57;;;;;;;0.10;0.10;;;;;;;14.99;65.66;100604.38;5088643;28;20039;-80
2023/04/23 08:09:25;;;;;;;0.10;0.10;;;;;;;15.03;65.90;100606.03;5086463;28;20024;-80
2023/04/23 08:11:51;;;;;;;0.10;0.10;;;;;;;15.11;66.38;100601.19;5090925;28;20040;-78
2023/04/23 08:14:17;;;;;;;0.40;0.40;;;;;;;15.16;66.50;100593.88;5088078;28;20436;-80
2023/04/23 08:16:44;;;;;;;0.10;0.10;;;;;;;15.25;66.64;100591.75;5083509;28;20033;-79
2023/04/23 08:19:10;;;;;;;0.10;0.10;;;;;;;15.31;66.36;100594.16;5076861;28;20028;-80
2023/04/23 08:21:37;;;;;;;0.57;0.57;;;;;;;15.34;66.49;100594.88;5077548;28;20045;-80
2023/04/23 08:24:04;;;;;;;0.10;0.10;;;;;;;15.34;66.06;100588.69;5086497;28;20073;-78
2023/04/23 08:26:30;;;;;;;0.20;0.20;;;;;;;15.48;65.80;100593.41;5073667;28;20045;-80
2023/04/23 08:28:59;;;;;;;0.20;0.20;;;;;;;15.50;65.45;100587.06;5086508;28;20408;-79
2023/04/23 08:31:25;;;;;;;0.20;0.20;;;;;;;15.55;64.03;100591.31;5077995;28;20051;-77
2023/04/23 08:33:51;;;;;;;0.20;0.20;;;;;;;15.58;64.03;100585.84;5076026;28;20462;-78
2023/04/23 08:36:17;;;;;;;0.20;0.20;;;;;;;15.65;64.76;100592.63;5074770;28;20032;-78
2023/04/23 08:38:43;;;;;;;1.42;1.35;;;;;;;15.68;63.92;100593.38;5073049;28;20024;-79
2023/04/23 08:41:12;;;;;;;0.45;0.45;;;;;;;15.76;64.67;100590.34;5078774;28;20036;-79
2023/04/23 08:43:55;;;;;;;0.82;0.77;;;;;;;15.93;64.58;100591.41;5084453;28;20036;-79
2023/04/23 08:46:24;;;;;;;0.10;0.10;;;;;;;15.95;63.65;100593.06;5073183;28;20085;-81
2023/04/23 08:48:52;;;;;;;0.85;0.85;;;;;;;15.97;63.20;100593.84;5082097;28;20055;-81
2023/04/23 08:51:23;;;;;;;0.10;0.10;;;;;;;16.03;62.66;100592.72;5076966;28;20025;-82
2023/04/23 08:53:52;;;;;;;0.17;0.17;;;;;;;16.12;63.13;100596.75;5076739;28;20029;-82
2023/04/23 08:56:20;;;;;;;1.02;0.98;;;;;;;16.14;62.31;100587.72;5076374;28;20490;-82
2023/04/23 08:58:48;;;;;;;0.20;0.20;;;;;;;16.22;62.39;100589.16;5081774;28;20050;-81
2023/04/23 09:01:16;;;;;;;0.10;0.10;;;;;;;16.37;63.42;100595.59;5086035;28;20032;-82
2023/04/23 09:03:42;;;;;;;0.20;0.20;;;;;;;16.48;63.85;100596.78;5093825;28;20021;-80
2023/04/23 09:06:09;;;;;;;0.10;0.10;;;;;;;16.46;62.27;100587.09;5079856;28;20083;-82
2023/04/23 09:08:35;;;;;;;4.47;1.92;;;;;;;16.64;62.70;100593.38;5082355;28;20119;-82
2023/04/23 09:11:03;;;;;;;0.10;0.10;;;;;;;16.72;61.58;100595.66;5096940;28;20493;-81
2023/04/23 09:13:33;;;;;;;0.10;0.10;;;;;;;16.78;61.06;100590.88;5070353;28;20018;-82
2023/04/23 09:16:00;;;;;;;0.20;0.20;;;;;;;16.84;60.84;100588.84;5073135;28;20513;-79
2023/04/23 09:18:26;;;;;;;0.10;0.10;;;;;;;16.88;59.96;100590.41;5070146;28;20057;-83
2023/04/23 09:20:53;;;;;;;0.50;0.50;;;;;;;16.89;59.01;100581.44;5079490;28;20075;-81
2023/04/23 09:23:22;;;;;;;0.10;0.10;;;;;;;16.91;58.55;100582.22;5081215;28;20023;-83
2023/04/23 09:25:48;;;;;;;0.32;0.32;;;;;;;16.85;59.73;100579.84;5082426;28;20037;-81
2023/04/23 09:28:14;;;;;;;0.10;0.10;;;;;;;16.81;59.23;100571.16;5079600;28;20473;-82
2023/04/23 09:30:44;;;;;;;0.50;0.50;;;;;;;16.88;60.67;100579.72;5088698;28;20537;-82
2023/04/23 09:33:12;;;;;;;0.10;0.10;;;;;;;16.95;60.67;100575.81;5087608;28;20035;-82
2023/04/23 09:35:40;;;;;;;1.38;1.08;;;;;;;17.10;60.40;100572.34;5083514;28;20121;-84
2023/04/23 09:38:07;;;;;;;0.10;0.10;;;;;;;17.21;58.13;100570.91;5077791;28;20078;-84
2023/04/23 09:40:33;;;;;;;0.80;0.40;;;;;;;17.36;58.13;100569.25;5084368;28;20060;-83
2023/04/23 09:43:03;;;;;;;0.93;0.93;;;;;;;17.55;57.64;100574.50;5083333;28;20051;-83
2023/04/23 09:45:31;;;;;;;0.20;0.20;;;;;;;17.71;59.28;100569.19;5090651;28;20096;-81
2023/04/23 09:47:58;;;;;;;0.35;0.35;;;;;;;17.90;58.10;100569.91;5082648;28;20028;-80
2023/04/23 09:50:37;;;;;;;0.05;0.05;;;;;;;18.08;56.55;100569.84;5087785;28;20028;-83
2023/04/23 09:53:05;;;;;;;0.10;0.10;;;;;;;18.12;56.08;100568.75;5090172;28;20025;-82
2023/04/23 09:55:36;;;;;;;0.47;0.47;;;;;;;18.19;56.20;100566.56;5089078;28;20095;-81
2023/04/23 09:58:10;;;;;;;0.20;0.20;;;;;;;18.23;56.11;100557.41;5098560;28;20040;-81
2023/04/23 10:00:37;;;;;;;1.33;1.27;;;;;;;18.34;55.09;100557.66;5089101;28;20040;-82
2023/04/23 10:03:06;;;;;;;0.85;0.85;;;;;;;18.39;56.01;100555.59;5092100;28;20028;-82
2023/04/23 10:05:36;;;;;;;0.57;0.57;;;;;;;18.49;56.65;100541.63;5091313;28;20033;-81
2023/04/23 10:08:03;;;;;;;0.10;0.10;;;;;;;18.53;55.58;100541.38;5079910;28;20051;-80
2023/04/23 10:10:30;;;;;;;0.10;0.10;;;;;;;18.57;54.16;100542.06;5085766;28;20096;-79
2023/04/23 10:12:56;;;;;;;0.43;0.43;;;;;;;18.56;54.15;100535.81;5090345;28;20021;-81
2023/04/23 10:15:25;;;;;;;0.10;0.10;;;;;;;18.57;53.87;100534.88;5086193;28;20714;-79
2023/04/23 10:17:52;;;;;;;0.20;0.20;;;;;;;18.63;53.44;100536.34;5075661;28;20056;-81
2023/04/23 10:20:21;;;;;;;0.20;0.20;;;;;;;18.69;53.12;100535.09;5085902;28;20032;-80
2023/04/23 10:22:48;;;;;;;0.30;0.30;;;;;;;18.69;53.07;100535.09;5081426;28;20755;-80
2023/04/23 10:25:15;;;;;;;0.10;0.10;;;;;;;18.78;52.95;100528.31;5079027;28;20071;-81
2023/04/23 10:27:42;;;;;;;0.10;0.10;;;;;;;18.91;53.73;100534.72;5073535;28;20033;-80
2023/04/23 10:30:12;;;;;;;0.45;0.45;;;;;;;18.92;52.50;100526.56;5075309;28;20658;-82
2023/04/23 10:32:38;;;;;;;0.10;0.10;;;;;;;18.95;52.90;100524.66;5073475;28;20050;-82
2023/04/23 10:35:06;;;;;;;0.57;0.57;;;;;;;19.00;53.12;100518.03;5074873;28;20021;-82
2023/04/23 10:37:33;;;;;;;0.10;0.10;;;;;;;19.08;52.78;100517.59;5087419;28;20044;-79
2023/04/23 10:40:11;;;;;;;0.10;0.10;;;;;;;19.29;53.62;100514.53;5088983;28;20049;-79
2023/04/23 10:42:39;;;;;;;0.10;0.10;;;;;;;19.32;51.96;100503.63;5086817;28;20020;-79
2023/04/23 10:45:17;;;;;;;0.10;0.10;;;;;;;19.36;50.25;100497.94;5085036;28;20045;-80
2023/04/23 10:47:44;;;;;;;0.10;0.10;;;;;;;19.51;51.77;100485.38;5073653;28;20048;-78
2023/04/23 10:50:34;;;;;;;0.10;0.10;;;;;;;19.69;52.27;100488.72;5085062;28;20029;-78
2023/04/23 10:53:02;;;;;;;0.10;0.10;;;;;;;19.66;50.82;100482.69;5075324;28;20033;-80
2023/04/23 10:55:29;;;;;;;0.10;0.10;;;;;;;19.68;50.14;100481.63;5080514;28;20024;-79
2023/04/23 11:06:11;;;;;;;0.10;0.10;;;;;;;19.66;50.00;100472.78;5113854;27;20409;-80
2023/04/23 11:08:50;;;;;;;0.43;0.43;;;;;;;19.73;50.25;100468.72;5109232;28;20053;-81
2023/04/23 11:11:16;;;;;;;0.20;0.20;;;;;;;19.73;48.53;100466.06;5123235;28;20028;-79
2023/04/23 11:13:52;;;;;;;0.20;0.20;;;;;;;19.95;50.49;100453.06;5113112;28;20031;-80
2023/04/23 11:16:22;;;;;;;0.10;0.10;;;;;;;20.00;50.06;100448.25;5115011;28;20043;-80
2023/04/23 11:19:11;;;;;;;0.10;0.10;;;;;;;20.14;49.97;100450.03;5104640;28;20044;-80
2023/04/23 11:24:41;;;;;;;0.17;0.17;;;;;;;20.04;47.47;100439.88;5123426;27;20137;-80
2023/04/23 11:27:11;;;;;;;0.10;0.10;;;;;;;20.01;47.54;100439.22;5105360;28;20496;-80
2023/04/23 11:29:41;;;;;;;0.20;0.20;;;;;;;19.93;49.06;100434.34;5091100;28;20123;-79
2023/04/23 11:32:11;;;;;;;0.10;0.10;;;;;;;19.78;48.81;100432.66;5098917;28;20036;-80
2023/04/23 11:34:40;;;;;;;0.15;0.15;;;;;;;19.62;48.55;100433.63;5085070;28;20036;-81